Terminal Aerodrome Forecast
Issued by NWS

Home | Current Version | Previous Version | Text Only | Print | Product List | Glossary On
Versions: 1 2 3 4 5 6 7 8 9 10 11 12 13
805
FTUS45 KRIW 141734
TAFCPR
TAF
KCPR 141734Z 1418/1518 VRB06KT P6SM BKN035
     FM142300 29010KT P6SM SCT030
     FM150500 24012G20KT P6SM SKC
     FM151200 23020G30KT P6SM SCT200=

USA.gov is the U.S. government's official web portal to all federal, state and local government web resources and services.